Time;durP1;ratioP1;P1;durP2;ratioP2;P2;SDS_P1;SDS_P2;PMS_P1;PMS_P2;Temp;Humidity;BMP_temperature;BMP_pressure;BME280_temperature;BME280_humidity;BME280_pressure;Samples;Min_cycle;Max_cycle;Signal;HPM_P1;HPM_P2
2022/09/05 00:02:26;;;;;;;2.13;1.83;;;14.10;99.90;;;;;;5078273;28;20063;-34
2022/09/05 00:04:55;;;;;;;2.25;1.80;;;14.10;99.90;;;;;;5081877;28;20025;-33
2022/09/05 00:07:44;;;;;;;2.58;2.20;;;14.10;99.90;;;;;;5080768;28;20107;-35
2022/09/05 00:10:28;;;;;;;4.55;2.05;;;13.90;99.90;;;;;;5080085;28;20044;-35
2022/09/05 00:12:58;;;;;;;2.85;1.67;;;13.80;99.90;;;;;;5081247;28;20153;-33
2022/09/05 00:15:42;;;;;;;1.08;1.00;;;13.60;99.90;;;;;;5080039;28;20107;-33
2022/09/05 00:18:29;;;;;;;1.63;1.30;;;13.60;99.90;;;;;;5081156;28;20042;-33
2022/09/05 00:21:21;;;;;;;1.15;1.13;;;13.70;99.90;;;;;;5078930;28;20078;-33
2022/09/05 00:24:15;;;;;;;1.60;1.50;;;13.70;99.90;;;;;;5082970;28;20533;-33
2022/09/05 00:27:05;;;;;;;21.02;1.88;;;13.80;99.90;;;;;;5079763;28;20481;-34
2022/09/05 00:29:36;;;;;;;1.33;0.90;;;13.60;99.90;;;;;;5079843;28;20035;-34
2022/09/05 00:32:20;;;;;;;4.32;1.50;;;13.40;99.90;;;;;;5080628;28;20036;-33
2022/09/05 00:35:15;;;;;;;1.58;1.48;;;13.40;99.90;;;;;;5084526;28;20065;-35
2022/09/05 00:37:47;;;;;;;2.85;1.70;;;13.40;99.90;;;;;;5085596;28;20119;-33
2022/09/05 00:40:24;;;;;;;1.85;1.75;;;13.30;99.90;;;;;;5084310;28;20034;-33
2022/09/05 00:42:54;;;;;;;2.40;2.10;;;13.30;99.90;;;;;;5084510;28;20039;-33
2022/09/05 00:45:43;;;;;;;4.25;2.20;;;13.40;99.90;;;;;;5084741;28;20028;-33
2022/09/05 00:48:19;;;;;;;2.92;1.83;;;13.40;99.90;;;;;;5083540;28;20126;-34
2022/09/05 00:51:00;;;;;;;4.47;2.40;;;13.40;99.90;;;;;;5085606;28;20317;-32
2022/09/05 00:53:44;;;;;;;3.47;2.20;;;13.40;99.90;;;;;;5081264;28;20051;-34
2022/09/05 00:56:34;;;;;;;2.17;1.98;;;13.20;99.90;;;;;;5086158;28;20435;-36
2022/09/05 00:59:23;;;;;;;2.88;1.42;;;13.10;99.90;;;;;;5084791;28;20116;-33
2022/09/05 01:02:01;;;;;;;1.00;1.00;;;12.80;99.90;;;;;;5053493;28;20063;-32
2022/09/05 01:04:31;;;;;;;2.60;1.45;;;12.40;99.90;;;;;;5065486;28;20025;-35
2022/09/05 01:07:28;;;;;;;1.05;1.02;;;12.20;99.90;;;;;;5080218;28;20481;-38
2022/09/05 01:10:19;;;;;;;1.63;1.23;;;12.10;99.90;;;;;;5082399;28;20096;-32
2022/09/05 01:13:04;;;;;;;0.88;0.88;;;11.90;99.90;;;;;;5081548;28;20491;-33
2022/09/05 01:15:51;;;;;;;1.20;1.10;;;12.10;99.90;;;;;;5085774;28;20055;-35
2022/09/05 01:18:29;;;;;;;1.92;1.65;;;12.30;99.90;;;;;;5085377;28;20093;-33
2022/09/05 01:20:58;;;;;;;1.70;1.60;;;12.50;99.90;;;;;;5081677;28;20054;-32
2022/09/05 01:23:34;;;;;;;;;;;12.50;99.90;;;;;;5083780;28;20513;-34
2022/09/05 01:26:35;;;;;;;1.77;1.30;;;12.50;99.90;;;;;;5080643;28;19938;-33
2022/09/05 01:29:03;;;;;;;1.60;1.48;;;12.30;99.90;;;;;;5084952;28;20038;-34
2022/09/05 01:31:29;;;;;;;;;;;12.40;99.90;;;;;;5068196;28;20031;-33
2022/09/05 01:33:57;;;;;;;1.40;1.30;;;12.40;99.90;;;;;;5082822;28;19923;-34
2022/09/05 01:36:23;;;;;;;;;;;12.50;99.90;;;;;;5086452;28;20062;-34
2022/09/05 01:38:54;;;;;;;1.50;1.20;;;12.60;99.90;;;;;;5082182;28;20329;-32
2022/09/05 01:41:29;;;;;;;0.60;0.60;;;12.60;99.90;;;;;;5085118;28;20110;-32
2022/09/05 01:44:30;;;;;;;0.70;0.70;;;12.60;99.90;;;;;;5081300;28;20036;-32
2022/09/05 01:47:25;;;;;;;0.52;0.52;;;12.60;99.90;;;;;;5080986;28;20024;-32
2022/09/05 01:50:28;;;;;;;0.75;0.75;;;12.60;99.90;;;;;;5071386;28;20040;-35
2022/09/05 01:53:26;;;;;;;0.90;0.90;;;12.70;99.90;;;;;;5083419;28;20453;-34
2022/09/05 01:56:05;;;;;;;1.15;1.05;;;12.80;99.90;;;;;;5084016;28;20036;-35
2022/09/05 01:58:51;;;;;;;1.90;1.40;;;12.80;99.90;;;;;;5081085;28;20029;-36
2022/09/05 02:01:27;;;;;;;1.08;1.08;;;12.80;99.90;;;;;;5078603;28;20103;-33
2022/09/05 02:04:30;;;;;;;2.20;1.40;;;12.80;99.90;;;;;;5084614;28;20027;-32
2022/09/05 02:07:26;;;;;;;1.77;1.67;;;12.90;99.90;;;;;;5077734;28;20020;-32
2022/09/05 02:10:31;;;;;;;2.13;1.60;;;12.80;99.90;;;;;;5082560;28;20389;-32
2022/09/05 02:13:12;;;;;;;1.08;1.08;;;12.70;99.90;;;;;;5081147;28;20503;-32
2022/09/05 02:15:48;;;;;;;1.40;1.30;;;12.70;99.90;;;;;;5081098;28;20043;-34
2022/09/05 02:18:22;;;;;;;0.95;0.95;;;12.70;99.90;;;;;;5083359;28;20695;-32
2022/09/05 02:20:57;;;;;;;0.75;0.75;;;12.70;99.90;;;;;;5085955;28;20044;-32
2022/09/05 02:23:38;;;;;;;1.70;1.60;;;12.70;99.90;;;;;;5081148;28;20059;-32
2022/09/05 02:26:13;;;;;;;1.52;1.42;;;12.60;99.90;;;;;;5080538;28;20024;-33
2022/09/05 02:29:17;;;;;;;1.95;1.50;;;12.40;99.90;;;;;;5084757;28;20077;-32
2022/09/05 02:31:47;;;;;;;0.98;0.98;;;12.30;99.90;;;;;;5081892;28;20074;-33
2022/09/05 02:34:42;;;;;;;0.63;0.63;;;12.30;99.90;;;;;;5081212;28;20111;-32
2022/09/05 02:37:19;;;;;;;1.48;1.27;;;12.30;99.90;;;;;;5081846;28;20090;-33
2022/09/05 02:39:55;;;;;;;2.13;1.70;;;12.10;99.90;;;;;;5080284;28;20508;-32
2022/09/05 02:42:37;;;;;;;2.10;1.40;;;11.80;99.90;;;;;;5084232;28;20479;-34
2022/09/05 02:45:27;;;;;;;1.48;1.38;;;11.70;99.90;;;;;;5084487;28;20028;-36
2022/09/05 02:48:26;;;;;;;2.05;1.63;;;11.90;99.90;;;;;;5082526;28;20332;-32
2022/09/05 02:51:03;;;;;;;1.90;1.50;;;12.00;99.90;;;;;;5083573;28;20085;-33
2022/09/05 02:53:30;;;;;;;1.98;1.60;;;12.00;99.90;;;;;;5081085;28;20412;-33
2022/09/05 02:56:13;;;;;;;1.77;1.67;;;12.10;99.90;;;;;;5079983;28;20028;-32
2022/09/05 02:58:54;;;;;;;1.90;1.70;;;12.20;99.90;;;;;;5080622;28;20024;-35
2022/09/05 03:01:37;;;;;;;2.00;1.80;;;12.20;99.90;;;;;;5081325;28;20036;-32
2022/09/05 03:04:21;;;;;;;2.35;1.83;;;12.20;99.90;;;;;;5062095;28;20036;-34
2022/09/05 03:07:11;;;;;;;5.32;2.00;;;12.20;99.90;;;;;;5077717;28;20021;-34
2022/09/05 03:10:08;;;;;;;1.80;1.70;;;12.10;99.90;;;;;;5082299;28;20051;-34
2022/09/05 03:12:37;;;;;;;1.55;0.90;;;12.20;99.90;;;;;;5081349;28;20024;-33
2022/09/05 03:15:27;;;;;;;0.80;0.80;;;12.10;99.90;;;;;;5082118;28;20024;-36
2022/09/05 03:18:03;;;;;;;0.70;0.70;;;11.90;99.90;;;;;;5077503;28;20555;-32
2022/09/05 03:20:51;;;;;;;1.17;1.08;;;11.90;99.90;;;;;;5080397;28;20048;-32
2022/09/05 03:23:54;;;;;;;1.37;0.97;;;12.00;99.90;;;;;;5080536;28;20541;-32
2022/09/05 03:26:50;;;;;;;0.70;0.70;;;12.00;99.90;;;;;;5079457;28;20299;-32
2022/09/05 03:29:41;;;;;;;0.77;0.77;;;12.10;99.90;;;;;;5075580;28;20033;-35
2022/09/05 03:32:27;;;;;;;0.60;0.60;;;12.10;99.90;;;;;;5078385;28;20131;-32
2022/09/05 03:35:26;;;;;;;1.38;0.50;;;12.10;99.90;;;;;;5080417;28;20028;-32
2022/09/05 03:38:21;;;;;;;6.55;0.85;;;11.80;99.90;;;;;;5082885;28;20408;-34
2022/09/05 03:41:02;;;;;;;1.13;0.75;;;11.70;99.90;;;;;;5069566;28;20047;-35
2022/09/05 03:43:53;;;;;;;1.30;1.20;;;11.70;99.90;;;;;;5084866;28;20043;-32
2022/09/05 03:46:43;;;;;;;2.35;1.58;;;11.80;99.90;;;;;;5074637;28;20377;-32
2022/09/05 03:49:20;;;;;;;2.53;1.90;;;11.70;99.90;;;;;;5074410;28;20531;-32
2022/09/05 03:52:19;;;;;;;2.60;2.03;;;11.70;99.90;;;;;;5072787;28;20139;-33
2022/09/05 03:55:02;;;;;;;2.13;1.90;;;11.70;99.90;;;;;;5067396;28;20037;-34
2022/09/05 03:57:34;;;;;;;2.17;1.80;;;11.60;99.90;;;;;;5084917;28;20099;-32
2022/09/05 04:00:19;;;;;;;1.77;1.58;;;11.70;99.90;;;;;;5080642;28;20043;-33
2022/09/05 04:02:57;;;;;;;3.03;1.70;;;11.70;99.90;;;;;;5060944;28;20052;-32
2022/09/05 04:05:31;;;;;;;1.60;1.50;;;11.40;99.90;;;;;;5061413;28;20023;-34
2022/09/05 04:08:18;;;;;;;1.42;0.95;;;11.30;99.90;;;;;;5083095;28;20032;-32
2022/09/05 04:11:16;;;;;;;1.15;1.05;;;11.40;99.90;;;;;;5077443;28;20020;-32
2022/09/05 04:13:50;;;;;;;1.00;1.00;;;11.50;99.90;;;;;;5083317;28;20562;-31
2022/09/05 04:16:27;;;;;;;1.20;1.10;;;11.10;99.90;;;;;;5080630;28;20032;-34
2022/09/05 04:19:06;;;;;;;2.08;1.30;;;10.80;99.90;;;;;;5081993;28;20020;-32
2022/09/05 04:21:43;;;;;;;1.30;1.20;;;10.70;99.90;;;;;;5078650;28;20517;-33
2022/09/05 04:24:28;;;;;;;0.90;0.90;;;10.70;99.90;;;;;;5082312;28;20024;-36
2022/09/05 04:27:23;;;;;;;0.90;0.90;;;10.70;99.90;;;;;;5064161;28;20028;-32
2022/09/05 04:29:58;;;;;;;1.25;1.15;;;10.90;99.90;;;;;;5079867;28;20086;-34
2022/09/05 04:32:37;;;;;;;2.22;1.60;;;11.10;99.90;;;;;;5079292;28;20035;-35
2022/09/05 04:35:18;;;;;;;1.83;1.40;;;11.10;99.90;;;;;;5080712;28;20028;-33
2022/09/05 04:38:10;;;;;;;1.92;1.15;;;11.10;99.90;;;;;;5080372;28;20024;-34
2022/09/05 04:40:47;;;;;;;1.50;1.40;;;11.20;99.90;;;;;;5077011;28;20036;-34
2022/09/05 04:43:19;;;;;;;1.40;1.30;;;11.30;99.90;;;;;;5079306;28;20027;-36
2022/09/05 04:45:52;;;;;;;2.30;1.60;;;11.30;99.90;;;;;;5082504;28;20059;-33
2022/09/05 04:48:22;;;;;;;1.55;1.30;;;11.40;99.90;;;;;;5083389;28;20028;-32
2022/09/05 04:51:02;;;;;;;1.63;1.52;;;11.40;99.90;;;;;;5081046;28;20047;-35
2022/09/05 04:53:58;;;;;;;2.15;1.95;;;11.50;99.90;;;;;;5077856;28;20028;-33
2022/09/05 04:56:33;;;;;;;1.70;1.50;;;11.50;99.90;;;;;;5077551;28;20023;-33
2022/09/05 04:59:12;;;;;;;1.70;1.40;;;11.30;99.90;;;;;;5064127;28;21006;-32
2022/09/05 05:01:46;;;;;;;2.38;1.75;;;11.20;99.90;;;;;;5083533;28;20036;-35
2022/09/05 05:04:16;;;;;;;1.48;1.38;;;11.20;99.90;;;;;;5081793;28;20027;-34
2022/09/05 05:07:23;;;;;;;1.17;1.10;;;11.30;99.90;;;;;;5081606;28;20068;-33
2022/09/05 05:09:57;;;;;;;32.65;2.60;;;11.30;99.90;;;;;;5076645;28;20028;-34
2022/09/05 05:12:48;;;;;;;0.70;0.70;;;11.10;99.90;;;;;;5058965;28;20539;-33
2022/09/05 05:15:17;;;;;;;0.70;0.70;;;11.00;99.90;;;;;;5082311;28;20032;-32
2022/09/05 05:17:57;;;;;;;10.05;2.05;;;11.20;99.90;;;;;;5082467;28;20028;-32
2022/09/05 05:20:41;;;;;;;1.00;1.00;;;11.30;99.90;;;;;;5080401;28;20105;-35
2022/09/05 05:23:14;;;;;;;0.80;0.77;;;11.50;99.90;;;;;;5082661;28;20039;-33
2022/09/05 05:25:50;;;;;;;0.85;0.85;;;11.60;99.90;;;;;;5086449;28;20040;-32
2022/09/05 05:28:25;;;;;;;0.90;0.90;;;11.60;99.90;;;;;;5081446;28;20489;-34
2022/09/05 05:30:52;;;;;;;0.88;0.73;;;11.60;99.90;;;;;;5082768;28;20036;-32
2022/09/05 05:33:26;;;;;;;2.50;1.42;;;11.70;99.90;;;;;;5082262;28;20065;-32
2022/09/05 05:35:56;;;;;;;2.65;1.40;;;11.80;99.90;;;;;;5084889;28;20440;-34
2022/09/05 05:38:41;;;;;;;1.92;1.40;;;11.80;99.90;;;;;;5085503;28;20047;-34
2022/09/05 05:41:11;;;;;;;2.65;1.60;;;11.70;99.90;;;;;;5086604;28;20409;-33
2022/09/05 05:43:40;;;;;;;2.25;1.80;;;11.80;99.90;;;;;;5082599;28;20020;-33
2022/09/05 05:46:07;;;;;;;3.60;1.85;;;11.80;99.90;;;;;;5086702;28;20551;-32
2022/09/05 05:48:37;;;;;;;2.60;2.38;;;11.80;99.90;;;;;;5080454;28;20028;-32
2022/09/05 05:51:26;;;;;;;3.80;2.78;;;11.90;99.90;;;;;;5080110;28;20520;-33
2022/09/05 05:54:04;;;;;;;5.35;2.70;;;12.00;99.90;;;;;;5085210;28;20040;-32
2022/09/05 05:57:02;;;;;;;5.50;2.60;;;12.20;99.90;;;;;;5079636;28;20024;-32
2022/09/05 05:59:56;;;;;;;3.85;3.20;;;12.30;99.90;;;;;;5065082;28;20085;-33
2022/09/05 06:02:53;;;;;;;3.78;2.97;;;12.40;99.90;;;;;;5085462;28;20024;-32
2022/09/05 06:05:26;;;;;;;4.28;3.42;;;12.50;99.90;;;;;;5081110;28;20555;-32
2022/09/05 06:08:00;;;;;;;5.43;3.45;;;12.60;99.90;;;;;;5083526;28;20049;-32
2022/09/05 06:10:49;;;;;;;4.03;3.17;;;12.70;99.90;;;;;;5063425;28;20389;-34
2022/09/05 06:13:33;;;;;;;4.32;3.25;;;12.80;99.90;;;;;;5084555;28;20503;-33
2022/09/05 06:16:17;;;;;;;3.65;2.97;;;12.90;99.90;;;;;;5086815;28;20028;-32
2022/09/05 06:19:24;;;;;;;4.82;3.15;;;13.20;99.90;;;;;;5082465;28;20130;-34
2022/09/05 06:22:24;;;;;;;4.50;3.70;;;13.40;99.90;;;;;;5080440;28;20584;-32
2022/09/05 06:25:21;;;;;;;5.55;4.40;;;13.50;99.90;;;;;;5081929;28;20776;-32
2022/09/05 06:27:58;;;;;;;6.72;3.60;;;13.70;99.90;;;;;;5065413;28;20119;-32
2022/09/05 06:30:24;;;;;;;7.70;5.30;;;14.00;99.90;;;;;;5078114;28;20024;-33
2022/09/05 06:32:56;;;;;;;4.85;4.20;;;14.10;99.90;;;;;;5083584;28;20270;-36
2022/09/05 06:35:33;;;;;;;5.15;3.75;;;14.10;99.90;;;;;;5086599;28;20031;-33
2022/09/05 06:38:20;;;;;;;5.72;4.07;;;14.20;99.90;;;;;;5079705;28;20483;-33
2022/09/05 06:40:46;;;;;;;4.78;4.18;;;14.30;99.90;;;;;;5083563;28;20041;-34
2022/09/05 06:43:20;;;;;;;7.47;4.45;;;14.40;99.90;;;;;;5085220;28;20065;-31
2022/09/05 06:46:33;;;;;;;5.28;4.28;;;14.50;99.90;;;;;;5083251;28;20531;-34
2022/09/05 06:49:05;;;;;;;5.82;4.28;;;14.60;99.90;;;;;;5017432;28;20037;-33
2022/09/05 06:52:14;;;;;;;5.88;4.20;;;14.70;99.90;;;;;;5073529;28;20025;-32
2022/09/05 06:54:51;;;;;;;6.13;4.55;;;14.80;99.90;;;;;;5082393;28;20039;-34
2022/09/05 06:57:54;;;;;;;6.00;4.53;;;14.90;99.90;;;;;;5085176;28;20047;-31
2022/09/05 07:00:37;;;;;;;8.35;5.30;;;15.00;99.90;;;;;;5079559;28;20028;-34
2022/09/05 07:03:29;;;;;;;8.15;5.40;;;15.20;99.90;;;;;;5083215;28;20051;-31
2022/09/05 07:06:24;;;;;;;7.90;5.43;;;15.30;99.90;;;;;;5076560;28;20128;-32
2022/09/05 07:09:12;;;;;;;7.07;5.15;;;15.40;99.90;;;;;;5081440;28;20028;-33
2022/09/05 07:11:40;;;;;;;6.20;5.30;;;15.50;99.90;;;;;;5084192;28;20024;-33
2022/09/05 07:14:43;;;;;;;6.85;5.10;;;15.50;99.90;;;;;;5080421;28;20468;-34
2022/09/05 07:17:23;;;;;;;6.95;5.28;;;15.70;99.90;;;;;;5079254;28;20052;-31
2022/09/05 07:20:07;;;;;;;6.68;5.30;;;15.90;99.90;;;;;;5084821;28;20389;-32
2022/09/05 07:22:50;;;;;;;6.22;4.85;;;16.00;99.90;;;;;;5078638;28;20043;-33
2022/09/05 07:25:27;;;;;;;5.18;4.57;;;16.20;99.90;;;;;;5080567;28;20032;-32
2022/09/05 07:27:52;;;;;;;6.07;4.97;;;16.30;99.90;;;;;;5081994;28;20393;-36
2022/09/05 07:30:19;;;;;;;8.25;5.68;;;16.50;99.90;;;;;;5083116;28;20028;-32
2022/09/05 07:32:49;;;;;;;5.90;4.53;;;16.70;99.90;;;;;;5083489;28;20020;-32
2022/09/05 07:35:24;;;;;;;7.95;5.28;;;16.90;99.90;;;;;;5079325;28;20430;-34
2022/09/05 07:38:03;;;;;;;6.30;4.93;;;17.10;99.90;;;;;;5077278;28;20423;-31
2022/09/05 07:40:32;;;;;;;5.15;4.57;;;17.40;99.90;;;;;;5082647;28;20028;-33
2022/09/05 07:43:14;;;;;;;6.72;4.72;;;17.60;99.90;;;;;;5084032;28;20496;-31
2022/09/05 07:46:12;;;;;;;7.00;4.82;;;17.70;99.90;;;;;;5082444;28;20647;-31
2022/09/05 07:48:46;;;;;;;6.15;5.53;;;17.80;99.90;;;;;;5074566;28;20032;-32
2022/09/05 07:51:29;;;;;;;7.40;4.68;;;17.90;99.90;;;;;;5082768;28;20493;-36
2022/09/05 07:54:02;;;;;;;5.70;4.72;;;17.90;99.90;;;;;;5081504;28;20528;-32
2022/09/05 07:56:51;;;;;;;8.95;5.65;;;17.90;99.90;;;;;;5080392;28;20416;-32
2022/09/05 07:59:18;;;;;;;6.13;5.10;;;17.90;99.90;;;;;;5081390;28;20019;-31
2022/09/05 08:01:46;;;;;;;7.28;5.45;;;18.00;99.90;;;;;;5083377;28;20039;-35
2022/09/05 08:04:34;;;;;;;6.55;5.10;;;18.10;99.90;;;;;;5081915;28;20111;-35
2022/09/05 08:07:12;;;;;;;7.32;5.53;;;18.30;99.90;;;;;;5082710;28;20024;-33
2022/09/05 08:09:46;;;;;;;5.35;4.07;;;18.60;99.90;;;;;;5081347;28;20105;-33
2022/09/05 08:12:31;;;;;;;5.22;3.63;;;18.80;99.90;;;;;;5082590;28;20016;-31
2022/09/05 08:15:21;;;;;;;4.60;3.60;;;19.00;99.90;;;;;;5081308;28;20036;-33
2022/09/05 08:18:13;;;;;;;5.25;4.07;;;19.20;99.90;;;;;;5079661;28;20051;-31
2022/09/05 08:20:54;;;;;;;6.00;4.47;;;19.30;99.90;;;;;;5080212;28;20148;-32
2022/09/05 08:23:52;;;;;;;5.47;3.95;;;19.40;99.90;;;;;;5080740;28;21201;-34
2022/09/05 08:26:30;;;;;;;5.43;4.70;;;19.50;99.90;;;;;;5081212;28;20036;-32
2022/09/05 08:29:17;;;;;;;6.25;3.70;;;19.50;99.90;;;;;;5080571;28;20024;-31
2022/09/05 08:31:51;;;;;;;7.43;4.35;;;19.70;99.90;;;;;;5082076;28;20036;-34
2022/09/05 08:34:38;;;;;;;5.25;4.30;;;19.70;99.90;;;;;;5082059;28;20028;-34
2022/09/05 08:37:05;;;;;;;6.93;4.30;;;19.70;99.90;;;;;;5085653;28;20505;-34
2022/09/05 08:39:32;;;;;;;4.70;4.10;;;19.70;99.90;;;;;;5081299;28;20036;-31
2022/09/05 08:42:10;;;;;;;5.60;4.30;;;19.80;99.90;;;;;;5084133;28;20036;-35
2022/09/05 08:45:34;;;;;;;4.88;3.90;;;19.90;99.90;;;;;;5083885;28;20317;-33
2022/09/05 08:48:46;;;;;;;4.65;4.18;;;20.10;99.90;;;;;;5002644;28;20057;-35
2022/09/05 08:51:44;;;;;;;5.13;3.58;;;20.20;99.90;;;;;;5041254;28;20492;-32
2022/09/05 08:54:22;;;;;;;7.20;3.78;;;20.20;99.90;;;;;;5081399;28;20603;-33
2022/09/05 08:57:06;;;;;;;3.85;2.88;;;20.40;99.90;;;;;;5087442;28;20031;-36
2022/09/05 08:59:38;;;;;;;5.15;3.00;;;20.50;99.90;;;;;;5086652;28;20286;-33
2022/09/05 09:02:10;;;;;;;2.63;2.42;;;20.70;99.90;;;;;;5082547;28;20527;-34
2022/09/05 09:04:58;;;;;;;3.20;2.90;;;20.80;99.90;;;;;;5064250;28;20546;-32
2022/09/05 09:07:23;;;;;;;;;;;21.00;99.90;;;;;;5083535;28;20092;-33
2022/09/05 09:10:23;;;;;;;4.90;2.88;;;21.20;99.90;;;;;;5086570;28;20054;-37
2022/09/05 09:13:05;;;;;;;6.45;3.67;;;21.30;99.90;;;;;;5085250;28;20067;-34
2022/09/05 09:16:03;;;;;;;3.55;2.40;;;21.50;99.90;;;;;;5082112;28;20484;-33
2022/09/05 09:18:49;;;;;;;2.70;2.50;;;21.50;99.90;;;;;;5083874;28;20054;-34
2022/09/05 09:21:32;;;;;;;2.40;2.15;;;21.70;99.90;;;;;;5073940;28;20052;-33
2022/09/05 09:24:04;;;;;;;3.55;2.60;;;21.80;99.90;;;;;;5084483;28;20031;-32
2022/09/05 09:26:41;;;;;;;3.30;2.67;;;21.80;99.90;;;;;;5086252;28;20047;-32
2022/09/05 09:29:09;;;;;;;2.85;2.58;;;21.90;98.60;;;;;;5081172;28;20090;-32
2022/09/05 09:31:37;;;;;;;;;;;22.20;99.90;;;;;;5082159;28;20024;-35
2022/09/05 09:34:24;;;;;;;2.70;2.50;;;22.50;99.90;;;;;;5086474;28;20008;-36
2022/09/05 09:37:12;;;;;;;2.43;2.23;;;22.50;99.90;;;;;;5084977;28;20068;-35
2022/09/05 09:40:02;;;;;;;3.13;2.60;;;22.40;97.40;;;;;;5083583;28;20024;-32
2022/09/05 09:42:27;;;;;;;2.67;2.47;;;22.30;97.90;;;;;;5086399;28;20028;-32
2022/09/05 09:45:28;;;;;;;2.67;2.40;;;22.40;98.30;;;;;;5086613;28;20070;-32
2022/09/05 09:48:08;;;;;;;2.30;2.10;;;22.80;95.90;;;;;;5084298;28;20023;-32
2022/09/05 09:50:46;;;;;;;3.28;2.20;;;22.80;94.10;;;;;;5088032;28;20028;-32
2022/09/05 09:53:13;;;;;;;3.08;2.30;;;22.70;93.10;;;;;;5083406;28;20036;-32
2022/09/05 09:56:08;;;;;;;3.53;2.00;;;22.90;92.80;;;;;;5084616;28;20051;-33
2022/09/05 09:58:35;;;;;;;4.50;2.30;;;23.00;92.50;;;;;;5087908;28;20424;-32
2022/09/05 10:01:16;;;;;;;2.83;2.17;;;23.00;93.00;;;;;;5085282;28;20043;-35
2022/09/05 10:04:06;;;;;;;2.42;2.20;;;23.00;92.90;;;;;;5085998;28;20074;-31
2022/09/05 10:06:55;;;;;;;2.35;2.15;;;23.00;93.00;;;;;;5082489;28;20362;-35
2022/09/05 10:09:49;;;;;;;2.72;2.05;;;23.10;91.00;;;;;;5085541;28;20043;-32
2022/09/05 10:12:27;;;;;;;2.50;2.30;;;23.50;90.70;;;;;;5078773;28;20540;-34
2022/09/05 10:15:27;;;;;;;3.13;2.17;;;23.90;90.60;;;;;;5085078;28;20036;-31
2022/09/05 10:18:17;;;;;;;2.50;2.33;;;24.30;90.80;;;;;;5079666;28;20031;-31
2022/09/05 10:21:04;;;;;;;3.00;2.00;;;24.30;87.90;;;;;;5085945;28;20032;-34
2022/09/05 10:23:49;;;;;;;3.25;2.08;;;23.90;80.50;;;;;;5082168;28;20111;-35
2022/09/05 10:26:46;;;;;;;2.13;1.92;;;23.90;86.80;;;;;;5081946;28;20033;-33
2022/09/05 10:29:37;;;;;;;2.90;2.35;;;23.80;91.00;;;;;;5069458;28;20024;-31
2022/09/05 10:32:11;;;;;;;2.80;2.10;;;23.90;85.00;;;;;;5077923;28;20024;-33
2022/09/05 10:34:53;;;;;;;2.05;1.90;;;23.90;82.80;;;;;;5082932;28;20073;-35
2022/09/05 10:37:19;;;;;;;2.47;2.28;;;24.10;81.70;;;;;;5082774;28;20032;-31
2022/09/05 10:39:51;;;;;;;1.95;1.80;;;24.30;84.10;;;;;;5085022;28;20028;-33
2022/09/05 10:42:33;;;;;;;2.05;1.90;;;24.20;79.50;;;;;;5084029;28;20059;-32
2022/09/05 10:45:03;;;;;;;2.92;2.10;;;24.30;85.10;;;;;;5081825;28;20032;-32
2022/09/05 10:48:09;;;;;;;2.40;2.13;;;24.20;78.60;;;;;;5062814;28;20549;-34
2022/09/05 10:50:42;;;;;;;2.13;1.92;;;24.10;80.90;;;;;;5053634;28;20706;-32
2022/09/05 10:53:10;;;;;;;2.28;2.08;;;24.30;76.60;;;;;;5083914;28;20028;-32
2022/09/05 10:56:15;;;;;;;3.28;1.92;;;24.50;79.30;;;;;;5084784;28;20031;-33
2022/09/05 10:58:50;;;;;;;2.22;2.03;;;25.00;80.10;;;;;;5043609;28;20442;-32
2022/09/05 11:01:40;;;;;;;2.00;1.77;;;25.20;75.60;;;;;;5082709;28;20028;-33
2022/09/05 11:04:50;;;;;;;2.55;2.17;;;25.20;75.90;;;;;;5086057;28;20047;-31
2022/09/05 11:07:27;;;;;;;3.15;1.80;;;25.00;68.90;;;;;;5082673;28;20027;-35
2022/09/05 11:10:18;;;;;;;1.95;1.77;;;24.70;69.30;;;;;;5082211;28;20548;-30
2022/09/05 11:12:46;;;;;;;2.13;1.55;;;25.00;68.90;;;;;;5084918;28;20024;-37
2022/09/05 11:15:37;;;;;;;3.20;1.75;;;25.30;70.00;;;;;;5078635;28;20772;-32
2022/09/05 11:18:08;;;;;;;1.90;1.80;;;25.20;62.60;;;;;;5079451;28;20035;-31
2022/09/05 11:20:53;;;;;;;3.35;2.03;;;25.30;66.40;;;;;;5082244;28;20124;-31
2022/09/05 11:23:51;;;;;;;2.00;1.75;;;25.50;67.90;;;;;;5080001;28;20376;-32
2022/09/05 11:26:38;;;;;;;1.98;1.85;;;25.50;68.60;;;;;;5081627;28;21952;-32
2022/09/05 11:29:35;;;;;;;2.72;2.00;;;25.60;70.80;;;;;;5081794;28;20523;-34
2022/09/05 11:32:19;;;;;;;;;;;25.30;67.00;;;;;;5078673;28;20035;-32
2022/09/05 11:35:04;;;;;;;2.45;1.88;;;25.50;66.50;;;;;;5084865;28;19920;-32
2022/09/05 11:37:51;;;;;;;2.70;1.83;;;25.40;68.40;;;;;;5080832;28;20432;-31
2022/09/05 11:40:44;;;;;;;2.47;2.22;;;25.50;65.30;;;;;;5083779;28;20901;-31
2022/09/05 11:43:29;;;;;;;2.72;1.92;;;25.80;64.00;;;;;;5082648;28;20031;-31
2022/09/05 11:46:10;;;;;;;2.33;2.15;;;25.90;68.60;;;;;;5082637;28;20038;-36
2022/09/05 11:48:55;;;;;;;2.17;1.95;;;25.90;66.10;;;;;;5083004;28;20020;-34
2022/09/05 11:51:51;;;;;;;2.95;2.13;;;25.60;73.70;;;;;;5084278;28;20042;-31
2022/09/05 11:54:55;;;;;;;2.90;2.40;;;25.60;77.10;;;;;;5081994;28;20020;-34
2022/09/05 11:57:58;;;;;;;2.45;2.13;;;25.50;78.00;;;;;;5084070;28;20145;-32
2022/09/05 12:00:46;;;;;;;2.33;2.13;;;25.50;71.10;;;;;;5082565;28;20521;-31
2022/09/05 12:03:44;;;;;;;3.88;1.95;;;25.50;70.80;;;;;;5080118;28;20127;-35
2022/09/05 12:06:32;;;;;;;2.40;2.20;;;25.70;69.50;;;;;;5083359;28;20036;-34
2022/09/05 12:09:16;;;;;;;;;;;25.60;69.30;;;;;;5082551;28;20147;-31
2022/09/05 12:12:09;;;;;;;2.30;1.83;;;25.50;70.20;;;;;;5084136;28;19915;-32
2022/09/05 12:14:34;;;;;;;2.40;2.20;;;25.30;72.00;;;;;;5084072;28;20039;-31
2022/09/05 12:17:26;;;;;;;3.45;2.20;;;25.30;66.60;;;;;;5082074;28;20032;-34
2022/09/05 12:20:10;;;;;;;2.25;2.10;;;25.40;68.70;;;;;;5082656;28;20071;-32
2022/09/05 12:22:46;;;;;;;2.22;1.98;;;25.40;69.60;;;;;;5081983;28;20467;-34
2022/09/05 12:25:32;;;;;;;2.40;1.90;;;25.50;72.90;;;;;;5081851;28;20365;-32
2022/09/05 12:28:06;;;;;;;3.00;2.10;;;25.40;66.10;;;;;;5080787;28;20040;-31
2022/09/05 12:30:36;;;;;;;2.50;2.30;;;25.40;70.30;;;;;;5087743;28;20065;-31
2022/09/05 12:33:11;;;;;;;2.95;1.88;;;25.40;71.30;;;;;;5086949;28;20570;-35
2022/09/05 12:35:36;;;;;;;2.13;1.90;;;25.30;70.90;;;;;;5070622;28;20028;-34
2022/09/05 12:38:35;;;;;;;2.13;2.00;;;25.30;68.10;;;;;;5089894;28;20033;-32
2022/09/05 12:41:22;;;;;;;2.22;2.00;;;25.40;65.50;;;;;;5090387;28;20027;-31
2022/09/05 12:43:54;;;;;;;2.40;2.20;;;25.40;69.70;;;;;;5089833;28;20054;-31
2022/09/05 12:46:32;;;;;;;3.13;2.10;;;25.40;71.00;;;;;;5090345;28;20085;-32
2022/09/05 12:49:18;;;;;;;2.90;1.75;;;25.40;71.00;;;;;;5087933;28;20028;-33
2022/09/05 12:51:53;;;;;;;1.95;1.83;;;25.40;66.40;;;;;;5088137;28;20036;-34
2022/09/05 12:54:32;;;;;;;2.25;2.05;;;25.50;64.00;;;;;;5088331;28;20034;-33
2022/09/05 12:57:26;;;;;;;2.33;1.92;;;25.60;63.80;;;;;;5090621;28;20046;-32
2022/09/05 12:59:56;;;;;;;2.22;1.98;;;25.60;64.20;;;;;;5085528;28;20047;-34
2022/09/05 13:02:26;;;;;;;2.00;1.83;;;25.80;63.50;;;;;;5084578;28;20584;-31
2022/09/05 13:05:02;;;;;;;2.05;1.67;;;25.80;61.60;;;;;;5086975;28;20027;-34
2022/09/05 13:07:47;;;;;;;2.53;2.05;;;25.70;60.30;;;;;;5091102;28;20034;-33
2022/09/05 13:10:29;;;;;;;2.45;1.83;;;25.70;61.10;;;;;;5088762;28;20587;-33
2022/09/05 13:12:59;;;;;;;1.88;1.77;;;25.80;59.40;;;;;;5090181;28;20183;-32
2022/09/05 13:15:35;;;;;;;3.33;1.90;;;26.10;63.50;;;;;;5090119;28;20065;-33
2022/09/05 13:18:08;;;;;;;1.70;1.60;;;26.10;57.30;;;;;;5087347;28;20028;-34
2022/09/05 13:20:45;;;;;;;2.15;1.92;;;26.10;57.00;;;;;;5090155;28;20071;-30
2022/09/05 13:23:11;;;;;;;2.38;1.95;;;26.20;60.90;;;;;;5089281;28;20111;-34
2022/09/05 13:25:41;;;;;;;2.35;1.63;;;26.30;59.50;;;;;;5087758;28;20112;-31
2022/09/05 13:28:10;;;;;;;2.05;1.75;;;26.20;55.60;;;;;;5087795;28;20024;-33
2022/09/05 13:30:48;;;;;;;1.80;1.70;;;26.30;60.00;;;;;;5089031;28;20051;-32
2022/09/05 13:33:22;;;;;;;1.90;1.80;;;26.50;58.30;;;;;;5087854;28;20046;-32
2022/09/05 13:36:06;;;;;;;2.17;1.98;;;26.50;53.80;;;;;;5086922;28;20076;-32
2022/09/05 13:38:43;;;;;;;2.00;1.70;;;26.40;58.00;;;;;;5087735;28;20548;-32
2022/09/05 13:41:20;;;;;;;2.20;1.50;;;26.40;58.20;;;;;;5085323;28;20035;-33
2022/09/05 13:43:46;;;;;;;2.20;1.45;;;26.60;51.70;;;;;;5080507;28;20028;-34
2022/09/05 13:46:18;;;;;;;2.20;1.92;;;26.60;52.30;;;;;;5066461;28;20038;-32
2022/09/05 13:49:21;;;;;;;2.63;1.90;;;26.70;54.50;;;;;;5084062;28;20034;-32
2022/09/05 13:52:04;;;;;;;2.20;1.70;;;26.60;50.10;;;;;;5036090;28;20036;-32
2022/09/05 13:54:35;;;;;;;2.28;1.63;;;26.20;49.40;;;;;;5079556;28;20029;-32
2022/09/05 13:57:19;;;;;;;1.60;1.50;;;26.10;51.20;;;;;;5085360;28;20039;-34
2022/09/05 14:00:16;;;;;;;1.90;1.77;;;26.10;50.90;;;;;;5065322;28;20028;-32
2022/09/05 14:03:19;;;;;;;2.08;1.70;;;26.20;54.30;;;;;;5082742;28;20073;-33
2022/09/05 14:06:03;;;;;;;1.98;1.80;;;26.20;51.40;;;;;;5076713;28;20193;-34
2022/09/05 14:08:43;;;;;;;1.70;1.60;;;26.20;54.40;;;;;;5084351;28;20055;-33